Time;durP1;ratioP1;P1;durP2;ratioP2;P2;SDS_P1;SDS_P2;PMS_P1;PMS_P2;Temp;Humidity;BMP_temperature;BMP_pressure;BME280_temperature;BME280_humidity;BME280_pressure;Samples;Min_cycle;Max_cycle;Signal;HPM_P1;HPM_P2
2022/05/06 00:00:45;;;;;;;19.40;11.60;;;;;;;6.78;96.85;100504.48;104876;1271;72609;-65
2022/05/06 00:03:33;;;;;;;20.80;11.70;;;;;;;6.74;97.01;100500.33;104889;1271;66511;-64
2022/05/06 00:06:22;;;;;;;20.40;11.70;;;;;;;6.69;97.10;100501.13;105108;1271;73566;-64
2022/05/06 00:09:10;;;;;;;19.40;11.00;;;;;;;6.63;97.41;100498.77;104990;1274;60521;-65
2022/05/06 00:11:58;;;;;;;22.40;10.90;;;;;;;6.59;97.59;100494.73;104860;1271;59854;-67
2022/05/06 00:14:47;;;;;;;21.20;10.70;;;;;;;6.48;97.53;100480.91;105116;1270;73604;-65
2022/05/06 00:17:35;;;;;;;18.90;10.60;;;;;;;6.48;97.60;100491.80;104832;1271;68197;-60
2022/05/06 00:20:23;;;;;;;19.70;10.60;;;;;;;6.45;97.74;100490.04;105046;1271;74532;-62
2022/05/06 00:23:11;;;;;;;20.70;10.80;;;;;;;6.40;97.45;100492.61;105054;1271;59667;-62
2022/05/06 00:25:59;;;;;;;21.60;11.20;;;;;;;6.35;97.89;100486.70;104888;1271;61768;-64
2022/05/06 00:28:47;;;;;;;19.70;10.60;;;;;;;6.32;97.79;100490.39;104988;1271;72753;-66
2022/05/06 00:31:35;;;;;;;22.80;10.40;;;;;;;6.28;97.72;100486.36;105042;1271;69847;-64
2022/05/06 00:34:27;;;;;;;19.20;10.80;;;;;;;6.22;97.58;100485.97;104965;1271;73700;-64
2022/05/06 00:37:15;;;;;;;21.90;11.30;;;;;;;6.18;97.48;100486.89;104990;1271;60695;-62
2022/05/06 00:40:04;;;;;;;19.80;11.00;;;;;;;6.12;97.67;100485.07;105092;1271;61922;-64
2022/05/06 00:42:52;;;;;;;20.30;11.30;;;;;;;6.07;97.61;100484.11;105172;1271;74254;-66
2022/05/06 00:46:03;;;;;;;19.70;10.00;;;;;;;6.03;97.84;100478.52;104917;1273;69576;-64
2022/05/06 00:48:52;;;;;;;24.00;10.70;;;;;;;6.00;97.84;100478.50;105045;1271;73508;-68
2022/05/06 00:51:42;;;;;;;20.10;9.90;;;;;;;5.97;98.12;100477.55;104854;1276;59756;-66
2022/05/06 00:54:37;;;;;;;24.10;10.70;;;;;;;5.95;98.11;100482.39;104544;1276;61357;-65
2022/05/06 00:57:25;;;;;;;21.50;10.60;;;;;;;5.95;98.40;100482.77;104573;1277;74570;-64
2022/05/06 01:00:20;;;;;;;17.50;9.40;;;;;;;5.93;98.31;100484.64;104698;1276;69422;-61
2022/05/06 01:03:08;;;;;;;22.00;10.50;;;;;;;5.89;98.16;100485.36;104527;1276;73301;-63
2022/05/06 01:05:56;;;;;;;20.10;10.30;;;;;;;5.85;98.30;100485.58;104654;1275;59682;-64
2022/05/06 01:08:44;;;;;;;18.20;10.00;;;;;;;5.77;98.36;100483.46;104742;1276;60699;-67
2022/05/06 01:11:34;;;;;;;22.40;10.90;;;;;;;5.72;98.06;100482.36;104649;1276;73746;-63
2022/05/06 01:14:34;;;;;;;20.30;10.80;;;;;;;5.67;98.26;100484.04;104629;1276;69634;-66
2022/05/06 01:17:33;;;;;;;20.60;11.50;;;;;;;5.61;98.24;100484.12;104604;1276;74986;-65
2022/05/06 01:20:24;;;;;;;22.60;10.80;;;;;;;5.58;98.11;100488.70;104587;1276;59863;-64
2022/05/06 01:23:12;;;;;;;21.80;10.60;;;;;;;5.54;98.08;100483.27;104673;1273;60350;-64
2022/05/06 01:26:01;;;;;;;19.80;10.90;;;;;;;5.50;98.51;100485.55;105028;1271;71729;-65
2022/05/06 01:28:49;;;;;;;18.80;10.10;;;;;;;5.48;98.59;100487.78;104669;1273;66486;-65
2022/05/06 01:31:39;;;;;;;17.70;10.40;;;;;;;5.46;98.78;100483.31;104922;1271;72989;-65
2022/05/06 01:34:30;;;;;;;18.90;9.20;;;;;;;5.48;98.93;100485.30;104732;1271;60275;-66
2022/05/06 01:37:21;;;;;;;18.70;9.40;;;;;;;5.48;98.55;100488.82;104892;1271;60494;-66
2022/05/06 01:40:14;;;;;;;18.40;9.50;;;;;;;5.45;98.10;100488.27;105152;1271;73765;-65
2022/05/06 01:43:13;;;;;;;18.00;9.00;;;;;;;5.43;98.39;100489.09;104754;1273;68282;-63
2022/05/06 01:46:04;;;;;;;20.40;9.30;;;;;;;5.39;98.13;100487.17;104756;1272;72573;-67
2022/05/06 01:48:55;;;;;;;20.30;10.10;;;;;;;5.33;98.04;100487.48;104707;1271;59641;-65
2022/05/06 01:51:47;;;;;;;19.40;10.50;;;;;;;5.26;97.97;100484.95;104767;1271;60596;-64
2022/05/06 01:54:40;;;;;;;19.60;10.50;;;;;;;5.21;98.01;100485.20;104875;1272;74505;-66
2022/05/06 01:57:28;;;;;;;20.80;10.60;;;;;;;5.18;98.43;100482.20;105017;1271;68248;-65
2022/05/06 02:00:19;;;;;;;22.00;10.80;;;;;;;5.16;98.62;100482.46;104929;1272;72909;-66
2022/05/06 02:05:16;;;;;;;20.30;10.90;;;;;;;5.16;99.01;100478.08;104781;1273;59687;-66
2022/05/06 02:06:16;;;;;;;18.30;10.30;;;;;;;5.15;99.35;100472.67;105265;1271;59569;-64
2022/05/06 02:09:06;;;;;;;22.40;10.80;;;;;;;5.15;99.44;100476.40;104781;1271;72681;-65
2022/05/06 02:12:10;;;;;;;21.10;11.30;;;;;;;5.15;99.56;100477.07;105033;1271;68708;-65
2022/05/06 02:15:13;;;;;;;19.40;10.10;;;;;;;5.14;99.61;100474.86;104801;1271;73539;-66
2022/05/06 02:18:13;;;;;;;17.10;9.30;;;;;;;5.12;99.93;100470.88;104885;1271;59704;-67
2022/05/06 02:21:10;;;;;;;20.00;9.30;;;;;;;5.10;100.00;100463.95;104815;1273;62028;-69
2022/05/06 02:24:20;;;;;;;18.30;9.80;;;;;;;5.11;100.00;100470.76;104862;1271;72213;-65
2022/05/06 02:27:29;;;;;;;19.20;10.30;;;;;;;5.09;100.00;100475.41;104980;1272;68087;-64
2022/05/06 02:33:31;;;;;;;21.80;10.70;;;;;;;5.04;100.00;100474.95;105039;1273;59678;-66
2022/05/06 02:36:33;;;;;;;21.10;11.00;;;;;;;5.04;100.00;100476.55;105069;1271;60697;-65
2022/05/06 02:39:22;;;;;;;19.70;9.90;;;;;;;5.04;100.00;100478.29;105114;1271;74715;-64
2022/05/06 02:42:18;;;;;;;19.50;10.20;;;;;;;5.04;100.00;100477.23;104888;1271;66703;-65
2022/05/06 02:45:12;;;;;;;20.70;10.50;;;;;;;5.04;100.00;100472.48;105067;1271;73325;-65
2022/05/06 02:48:01;;;;;;;21.60;9.70;;;;;;;5.04;100.00;100477.62;105078;1271;61195;-64
2022/05/06 02:50:51;;;;;;;18.40;9.70;;;;;;;5.03;100.00;100478.19;105132;1271;59761;-68
2022/05/06 02:53:39;;;;;;;18.40;8.90;;;;;;;5.03;100.00;100478.85;104907;1271;74546;-66
2022/05/06 02:56:27;;;;;;;17.20;8.60;;;;;;;5.05;100.00;100486.70;104991;1271;67445;-68
2022/05/06 02:59:19;;;;;;;19.30;9.60;;;;;;;5.07;100.00;100486.61;104801;1272;74511;-65
2022/05/06 03:02:08;;;;;;;18.30;8.20;;;;;;;5.09;100.00;100485.42;104771;1272;59721;-64
2022/05/06 03:04:56;;;;;;;15.90;8.60;;;;;;;5.12;100.00;100487.05;104973;1271;60601;-65
2022/05/06 03:07:45;;;;;;;18.50;9.20;;;;;;;5.15;100.00;100488.34;104915;1271;73615;-64
2022/05/06 03:10:33;;;;;;;18.00;8.30;;;;;;;5.16;100.00;100484.40;104928;1271;67898;-63
2022/05/06 03:13:22;;;;;;;17.00;8.30;;;;;;;5.19;100.00;100489.39;104845;1271;73439;-65
2022/05/06 03:16:13;;;;;;;16.60;8.20;;;;;;;5.21;100.00;100491.92;105046;1271;59680;-64
2022/05/06 03:19:02;;;;;;;16.40;9.20;;;;;;;5.23;100.00;100494.25;105065;1273;61323;-66
2022/05/06 03:21:56;;;;;;;18.80;9.20;;;;;;;5.26;100.00;100500.30;104797;1273;73530;-64
2022/05/06 03:24:45;;;;;;;17.40;8.70;;;;;;;5.29;100.00;100498.02;105033;1272;67901;-64
2022/05/06 03:30:47;;;;;;;17.50;9.30;;;;;;;5.36;100.00;100500.30;104940;1271;59656;-63
2022/05/06 03:33:55;;;;;;;16.70;9.20;;;;;;;5.40;99.95;100500.49;104774;1271;62225;-64
2022/05/06 03:36:48;;;;;;;16.10;8.40;;;;;;;5.44;99.81;100505.59;104977;1271;72475;-65
2022/05/06 03:39:36;;;;;;;17.70;8.90;;;;;;;5.48;99.88;100504.16;104991;1271;66814;-67
2022/05/06 03:42:26;;;;;;;17.00;9.00;;;;;;;5.51;99.80;100505.74;104931;1271;72660;-63
2022/05/06 03:45:15;;;;;;;15.00;8.30;;;;;;;5.55;99.81;100507.30;104886;1271;60692;-64
2022/05/06 03:48:04;;;;;;;19.00;9.10;;;;;;;5.59;99.85;100507.13;104923;1271;59736;-64
2022/05/06 03:54:03;;;;;;;19.00;8.20;;;;;;;5.69;99.66;100505.94;104948;1271;69151;-64
2022/05/06 03:56:53;;;;;;;19.20;9.80;;;;;;;5.73;99.93;100507.81;104898;1271;72830;-64
2022/05/06 03:59:41;;;;;;;20.40;9.40;;;;;;;5.78;99.98;100505.81;105355;1271;59819;-69
2022/05/06 04:02:38;;;;;;;18.50;8.60;;;;;;;5.83;99.83;100508.36;104755;1271;59649;-66
2022/05/06 04:05:27;;;;;;;20.10;8.90;;;;;;;5.89;99.79;100513.56;104719;1273;74223;-65
2022/05/06 04:08:16;;;;;;;18.60;9.70;;;;;;;5.95;99.48;100514.30;104796;1273;67035;-67
2022/05/06 04:11:05;;;;;;;17.40;8.90;;;;;;;6.00;99.53;100514.27;104988;1273;72993;-68
2022/05/06 04:13:54;;;;;;;15.20;8.30;;;;;;;6.06;99.62;100520.30;104734;1272;60900;-68
2022/05/06 04:16:42;;;;;;;14.30;7.80;;;;;;;6.12;99.63;100522.77;104740;1273;60413;-68
2022/05/06 04:26:13;;;;;;;17.60;7.90;;;;;;;6.32;99.11;100527.92;104794;1273;73802;-67
2022/05/06 04:29:08;;;;;;;17.50;10.10;;;;;;;6.39;99.34;100530.90;104859;1274;59801;-66
2022/05/06 04:31:56;;;;;;;19.30;8.80;;;;;;;6.46;99.18;100531.92;105066;1274;60525;-68
2022/05/06 04:34:45;;;;;;;17.70;8.70;;;;;;;6.53;98.82;100529.98;104981;1273;73581;-69
2022/05/06 04:37:34;;;;;;;17.90;8.70;;;;;;;6.61;98.80;100530.46;104927;1271;69594;-67
2022/05/06 04:40:22;;;;;;;19.40;9.30;;;;;;;6.70;98.52;100533.85;104911;1274;73742;-70
2022/05/06 04:43:11;;;;;;;19.70;9.00;;;;;;;6.79;98.36;100533.70;104898;1271;60275;-73
2022/05/06 04:46:00;;;;;;;18.30;9.10;;;;;;;6.90;98.09;100537.20;105079;1271;61581;-70
2022/05/06 04:48:49;;;;;;;17.00;8.40;;;;;;;7.01;97.80;100538.19;104975;1271;72994;-69
2022/05/06 04:51:37;;;;;;;16.20;8.50;;;;;;;7.11;97.59;100539.18;104928;1272;66533;-69
2022/05/06 04:54:26;;;;;;;15.80;8.60;;;;;;;7.23;97.49;100536.77;104703;1271;72041;-69
2022/05/06 04:57:15;;;;;;;19.10;8.70;;;;;;;7.36;96.83;100537.09;104770;1274;59806;-66
2022/05/06 05:00:04;;;;;;;18.00;8.30;;;;;;;7.49;96.64;100536.33;105088;1271;60475;-67
2022/05/06 05:02:53;;;;;;;15.00;8.00;;;;;;;7.64;95.99;100536.77;104957;1271;74683;-68
2022/05/06 05:05:43;;;;;;;13.20;7.80;;;;;;;7.80;95.18;100534.03;105178;1271;67068;-69
2022/05/06 05:08:31;;;;;;;16.40;7.80;;;;;;;8.03;94.30;100531.95;104932;1271;72106;-69
2022/05/06 05:11:19;;;;;;;18.30;8.40;;;;;;;8.60;92.65;100530.34;104801;1271;59768;-72
2022/05/06 05:14:13;;;;;;;12.50;6.80;;;;;;;9.71;88.31;100529.08;104769;1272;60341;-69
2022/05/06 05:17:02;;;;;;;14.00;7.20;;;;;;;11.16;82.35;100526.50;104955;1271;73800;-71
2022/05/06 05:19:50;;;;;;;13.90;8.70;;;;;;;12.72;75.97;100521.80;105025;1271;68325;-69
2022/05/06 05:22:39;;;;;;;14.70;6.90;;;;;;;14.25;68.62;100519.82;104967;1272;72600;-67
2022/05/06 05:25:30;;;;;;;13.00;6.60;;;;;;;15.57;64.16;100517.70;104803;1271;59763;-67
2022/05/06 05:28:20;;;;;;;12.50;6.20;;;;;;;16.89;61.10;100514.42;104866;1272;59814;-66
2022/05/06 05:31:08;;;;;;;11.00;4.90;;;;;;;17.98;56.46;100512.66;104905;1271;74064;-66
2022/05/06 05:33:56;;;;;;;12.50;4.80;;;;;;;18.97;53.14;100513.00;105084;1271;68705;-65
2022/05/06 05:36:45;;;;;;;9.80;4.40;;;;;;;19.64;49.20;100502.83;104752;1271;73758;-66
2022/05/06 05:39:33;;;;;;;8.90;4.10;;;;;;;20.20;47.55;100499.09;105230;1271;59831;-65
2022/05/06 05:42:24;;;;;;;11.40;4.50;;;;;;;20.84;44.92;100499.45;104972;1271;60510;-66
2022/05/06 05:48:21;;;;;;;13.00;7.70;;;;;;;22.01;41.95;100497.03;104728;1271;69689;-70
2022/05/06 05:51:23;;;;;;;12.40;4.30;;;;;;;22.76;39.92;100492.14;105015;1271;71941;-66
2022/05/06 05:54:15;;;;;;;12.50;6.90;;;;;;;23.42;38.24;100493.80;104980;1271;59739;-66
2022/05/06 05:57:07;;;;;;;8.70;3.90;;;;;;;23.87;36.47;100491.47;104767;1272;59659;-66
2022/05/06 05:59:56;;;;;;;8.10;3.40;;;;;;;24.32;36.34;100491.14;104925;1273;73277;-66
2022/05/06 06:02:45;;;;;;;9.30;3.60;;;;;;;24.78;34.88;100490.86;104719;1271;67816;-65
2022/05/06 06:05:35;;;;;;;7.80;3.40;;;;;;;25.17;34.25;100488.11;104934;1271;72395;-63
2022/05/06 06:08:24;;;;;;;8.00;3.60;;;;;;;25.29;33.31;100491.80;105071;1271;59622;-66
2022/05/06 06:11:17;;;;;;;7.80;2.90;;;;;;;25.65;33.08;100492.17;104799;1272;60597;-64
2022/05/06 06:14:07;;;;;;;7.50;3.00;;;;;;;25.90;31.78;100494.77;104945;1273;74377;-66
2022/05/06 06:16:56;;;;;;;7.50;2.80;;;;;;;26.07;31.78;100493.90;104923;1274;69102;-67
2022/05/06 06:19:46;;;;;;;8.10;2.80;;;;;;;26.01;31.07;100493.15;105210;1271;72700;-66
2022/05/06 06:22:34;;;;;;;8.60;3.20;;;;;;;25.98;30.97;100488.27;104830;1271;59652;-68
2022/05/06 06:25:25;;;;;;;7.80;3.30;;;;;;;26.25;31.41;100489.32;104628;1273;61045;-68
2022/05/06 06:28:16;;;;;;;8.60;3.50;;;;;;;26.67;30.75;100491.19;104764;1271;73280;-67
2022/05/06 06:31:06;;;;;;;7.70;3.00;;;;;;;26.99;30.27;100498.52;104961;1271;68628;-71
2022/05/06 06:33:53;;;;;;;7.30;3.00;;;;;;;27.49;29.53;100498.34;105015;1273;71620;-68
2022/05/06 06:36:49;;;;;;;8.40;2.70;;;;;;;27.92;28.27;100497.82;104921;1273;59658;-70
2022/05/06 06:39:37;;;;;;;8.10;2.80;;;;;;;28.30;27.93;100493.22;105617;1271;62101;-68
2022/05/06 06:42:25;;;;;;;6.70;2.40;;;;;;;28.81;27.22;100486.52;105543;1272;73074;-68
2022/05/06 06:45:25;;;;;;;8.60;3.00;;;;;;;29.13;26.18;100490.02;105442;1271;68234;-69
2022/05/06 06:48:15;;;;;;;7.40;2.40;;;;;;;28.89;25.90;100487.81;104854;1271;73167;-70
2022/05/06 06:51:14;;;;;;;7.80;2.50;;;;;;;28.91;26.10;100488.63;105044;1271;60444;-71
2022/05/06 06:54:11;;;;;;;8.00;2.30;;;;;;;29.03;25.64;100491.92;105152;1271;60469;-71
2022/05/06 06:56:58;;;;;;;6.30;2.00;;;;;;;28.97;25.72;100488.89;105113;1271;73754;-69
2022/05/06 06:59:46;;;;;;;6.70;2.10;;;;;;;29.28;25.45;100488.22;105107;1271;65562;-70
2022/05/06 07:02:36;;;;;;;6.50;2.00;;;;;;;29.54;25.03;100488.52;105006;1271;71728;-71
2022/05/06 07:05:24;;;;;;;8.00;2.20;;;;;;;30.00;24.83;100486.89;105236;1271;59778;-69
2022/05/06 07:14:29;;;;;;;8.60;2.30;;;;;;;30.89;23.24;100480.12;105218;1272;66889;-70
2022/05/06 07:17:17;;;;;;;9.40;2.20;;;;;;;31.00;23.15;100485.27;105067;1273;71792;-69
2022/05/06 07:20:10;;;;;;;7.30;1.80;;;;;;;30.81;22.95;100490.98;105123;1273;59759;-70
2022/05/06 07:22:59;;;;;;;6.20;2.00;;;;;;;30.78;23.46;100492.61;104943;1274;59563;-68
2022/05/06 07:25:46;;;;;;;6.60;2.00;;;;;;;30.75;23.26;100491.02;105185;1273;72999;-68
2022/05/06 07:28:34;;;;;;;6.40;2.10;;;;;;;31.08;23.14;100493.35;105177;1273;68504;-70
2022/05/06 07:31:22;;;;;;;6.30;1.80;;;;;;;31.27;22.43;100500.64;104724;1273;74118;-69
2022/05/06 07:34:12;;;;;;;6.00;2.10;;;;;;;31.48;22.12;100503.15;105406;1273;59932;-68
2022/05/06 07:37:01;;;;;;;7.30;2.20;;;;;;;31.47;21.71;100507.26;105512;1271;59657;-72
2022/05/06 07:39:49;;;;;;;6.50;1.90;;;;;;;31.42;21.90;100505.58;105137;1273;74466;-71
2022/05/06 07:42:38;;;;;;;6.80;1.70;;;;;;;31.23;22.31;100503.81;105237;1271;69045;-71
2022/05/06 07:45:26;;;;;;;7.60;1.70;;;;;;;31.34;22.39;100505.94;105522;1273;74351;-70
2022/05/06 07:48:19;;;;;;;12.30;2.80;;;;;;;31.39;22.51;100503.48;105035;1272;59751;-71
2022/05/06 07:51:07;;;;;;;8.60;2.80;;;;;;;31.60;22.32;100504.36;105370;1271;61517;-69
2022/05/06 07:53:56;;;;;;;8.10;2.20;;;;;;;31.66;21.74;100504.65;105444;1271;72416;-74
2022/05/06 07:56:44;;;;;;;8.60;2.20;;;;;;;31.58;22.05;100504.34;105175;1271;67160;-66
2022/05/06 07:59:32;;;;;;;8.50;2.20;;;;;;;31.56;22.10;100508.09;105144;1271;72666;-75
2022/05/06 08:05:29;;;;;;;8.60;2.10;;;;;;;31.18;21.60;100510.14;105248;1271;60226;-74
2022/05/06 08:08:16;;;;;;;6.10;1.80;;;;;;;30.95;22.39;100508.73;105114;1271;71989;-73
2022/05/06 08:11:04;;;;;;;5.90;1.60;;;;;;;30.99;22.37;100502.49;105210;1271;66789;-71
2022/05/06 08:13:52;;;;;;;8.00;1.70;;;;;;;30.74;22.62;100502.33;105199;1271;72851;-65
2022/05/06 08:16:41;;;;;;;6.00;1.90;;;;;;;30.56;22.81;100495.63;105026;1271;59745;-72
2022/05/06 08:19:29;;;;;;;6.20;1.80;;;;;;;30.69;22.81;100498.92;104985;1272;61681;-72
2022/05/06 08:22:17;;;;;;;5.90;1.80;;;;;;;30.96;22.71;100496.84;105009;1271;72960;-72
2022/05/06 08:25:08;;;;;;;5.70;1.80;;;;;;;30.83;22.08;100504.92;105066;1271;68234;-68
2022/05/06 08:28:13;;;;;;;6.00;1.90;;;;;;;30.83;22.24;100504.42;105382;1271;72808;-69
2022/05/06 08:31:02;;;;;;;7.10;2.10;;;;;;;30.89;22.71;100506.59;104850;1271;59910;-66
2022/05/06 08:33:50;;;;;;;6.00;1.80;;;;;;;30.72;22.40;100509.98;105084;1271;60458;-71
2022/05/06 08:36:41;;;;;;;7.30;2.30;;;;;;;30.74;22.84;100509.35;105249;1271;71736;-70
2022/05/06 08:39:28;;;;;;;7.60;2.10;;;;;;;30.73;23.07;100513.67;105024;1274;69536;-75
2022/05/06 08:42:21;;;;;;;7.20;2.10;;;;;;;30.58;23.18;100514.95;105185;1271;73407;-69
2022/05/06 08:51:31;;;;;;;6.70;1.80;;;;;;;30.32;23.08;100517.81;105437;1271;73146;-67
2022/05/06 08:54:20;;;;;;;6.40;2.20;;;;;;;30.15;23.13;100520.61;104934;1271;67459;-71
2022/05/06 08:57:09;;;;;;;7.40;3.50;;;;;;;30.38;22.92;100520.28;105208;1271;72797;-70
2022/05/06 08:59:57;;;;;;;7.20;2.60;;;;;;;30.07;22.93;100525.34;105057;1271;59883;-69
2022/05/06 09:02:46;;;;;;;6.70;2.50;;;;;;;29.13;24.06;100520.67;105354;1271;59710;-67
2022/05/06 09:05:48;;;;;;;6.50;2.50;;;;;;;28.29;25.12;100523.98;104848;1272;72355;-70
2022/05/06 09:08:43;;;;;;;6.90;2.10;;;;;;;27.44;26.59;100531.33;104874;1271;352398;-69
2022/05/06 09:17:45;;;;;;;9.30;2.80;;;;;;;24.44;30.85;100538.40;105115;1270;61450;-73
2022/05/06 09:20:36;;;;;;;9.00;3.00;;;;;;;23.56;32.69;100544.76;105024;1274;73217;-73
2022/05/06 09:23:29;;;;;;;8.60;3.00;;;;;;;22.89;33.87;100542.11;105217;1271;69055;-72
2022/05/06 09:26:18;;;;;;;8.10;3.30;;;;;;;22.32;34.79;100548.48;105104;1271;73435;-72
2022/05/06 09:29:06;;;;;;;7.30;2.80;;;;;;;22.49;35.37;100545.15;104999;1273;59787;-69
2022/05/06 09:31:56;;;;;;;7.70;3.10;;;;;;;22.11;36.43;100549.48;104963;1274;61934;-73
2022/05/06 09:35:05;;;;;;;6.90;2.90;;;;;;;21.45;37.61;100548.79;105274;1271;73317;-69
2022/05/06 09:37:53;;;;;;;7.50;2.90;;;;;;;20.48;39.15;100553.34;105414;1271;68130;-72
2022/05/06 09:40:41;;;;;;;7.10;2.70;;;;;;;19.82;40.31;100561.89;105087;1271;71443;-70
2022/05/06 09:43:29;;;;;;;7.10;2.20;;;;;;;19.32;40.56;100568.56;105236;1271;59729;-71
2022/05/06 09:46:22;;;;;;;6.50;2.00;;;;;;;19.07;41.29;100564.71;105288;1271;60433;-68
2022/05/06 09:49:11;;;;;;;6.40;2.20;;;;;;;18.95;41.23;100567.27;105331;1271;73526;-71
2022/05/06 09:52:19;;;;;;;6.50;2.20;;;;;;;19.06;41.54;100564.27;105396;1271;68372;-73
2022/05/06 09:55:08;;;;;;;8.30;2.20;;;;;;;19.13;41.49;100558.67;105147;1271;72850;-72
2022/05/06 09:57:59;;;;;;;6.80;2.50;;;;;;;19.08;41.47;100568.90;105192;1274;59740;-71
2022/05/06 10:00:48;;;;;;;7.30;2.40;;;;;;;18.85;42.15;100572.73;105185;1272;60608;-71
2022/05/06 10:03:35;;;;;;;6.90;2.50;;;;;;;18.48;43.27;100573.64;105121;1271;73406;-71
2022/05/06 10:06:25;;;;;;;7.30;2.30;;;;;;;18.21;44.23;100576.09;105050;1271;68047;-67
2022/05/06 10:09:16;;;;;;;6.30;2.20;;;;;;;18.09;44.76;100575.30;104730;1271;73527;-71
2022/05/06 10:12:08;;;;;;;6.50;2.20;;;;;;;18.08;44.87;100577.42;105236;1273;59660;-66
2022/05/06 10:14:57;;;;;;;6.90;2.30;;;;;;;18.04;44.81;100576.32;104997;1271;60734;-68
2022/05/06 10:18:02;;;;;;;6.50;2.20;;;;;;;17.93;44.23;100578.55;104858;1271;74758;-71
2022/05/06 10:20:50;;;;;;;7.80;3.00;;;;;;;17.92;44.10;100587.83;105319;1271;66908;-70
2022/05/06 10:23:41;;;;;;;6.30;2.20;;;;;;;17.84;44.52;100586.73;105168;1271;73439;-71
2022/05/06 10:26:45;;;;;;;7.40;2.40;;;;;;;17.79;44.38;100586.16;105060;1271;60096;-69
2022/05/06 10:32:56;;;;;;;7.30;2.20;;;;;;;17.43;45.56;100589.39;105147;1271;71125;-66
2022/05/06 10:35:47;;;;;;;7.70;2.30;;;;;;;17.26;46.50;100591.72;104784;1276;68043;-67
2022/05/06 10:38:47;;;;;;;8.30;2.70;;;;;;;17.34;46.86;100588.45;104777;1277;73829;-74
2022/05/06 10:41:34;;;;;;;6.30;2.60;;;;;;;17.54;46.77;100587.94;104795;1276;59728;-71
2022/05/06 10:44:48;;;;;;;7.90;2.70;;;;;;;17.82;46.47;100583.70;104871;1277;60508;-73
2022/05/06 10:47:39;;;;;;;6.50;2.70;;;;;;;18.25;45.88;100574.77;104894;1278;70707;-71
2022/05/06 10:50:38;;;;;;;6.90;2.40;;;;;;;18.82;44.06;100583.08;104903;1277;67998;-74
2022/05/06 10:53:34;;;;;;;7.80;2.90;;;;;;;19.75;42.15;100580.14;104660;1276;73360;-73
2022/05/06 10:56:22;;;;;;;6.70;2.40;;;;;;;20.30;40.45;100573.75;104831;1277;59860;-61
2022/05/06 10:59:19;;;;;;;6.70;2.30;;;;;;;20.37;40.06;100567.80;104964;1276;60614;-67
2022/05/06 11:02:11;;;;;;;7.50;2.10;;;;;;;20.32;40.16;100568.34;105076;1276;73396;-65
2022/05/06 11:05:01;;;;;;;7.00;2.70;;;;;;;20.11;40.31;100565.46;104859;1276;67248;-70
2022/05/06 11:07:53;;;;;;;7.00;2.80;;;;;;;19.71;41.09;100575.14;104722;1271;72134;-63
2022/05/06 11:10:42;;;;;;;7.20;2.70;;;;;;;19.44;42.16;100573.02;104725;1274;60029;-65
2022/05/06 11:13:52;;;;;;;6.70;2.60;;;;;;;19.15;42.53;100573.98;104848;1271;60000;-65
2022/05/06 11:16:40;;;;;;;7.50;2.30;;;;;;;19.04;43.41;100571.64;105094;1271;74777;-65
2022/05/06 11:19:34;;;;;;;6.50;2.60;;;;;;;18.92;43.44;100571.47;104988;1271;69505;-65
2022/05/06 11:22:23;;;;;;;7.70;3.10;;;;;;;19.03;43.39;100571.23;104786;1274;74184;-64
2022/05/06 11:25:15;;;;;;;7.60;3.00;;;;;;;19.17;42.78;100575.20;104902;1271;60123;-65
2022/05/06 11:28:13;;;;;;;7.60;2.40;;;;;;;19.37;41.87;100569.93;104731;1271;59811;-65
2022/05/06 11:31:01;;;;;;;6.40;2.30;;;;;;;19.77;40.87;100570.95;104691;1274;73604;-66
2022/05/06 11:33:50;;;;;;;6.60;2.60;;;;;;;20.21;39.79;100562.37;104961;1271;67920;-62
2022/05/06 11:36:38;;;;;;;7.30;2.60;;;;;;;20.47;39.66;100561.11;104822;1271;73117;-63
2022/05/06 11:39:32;;;;;;;7.00;2.20;;;;;;;20.34;39.49;100559.33;105169;1271;59666;-67
2022/05/06 11:42:24;;;;;;;6.50;2.20;;;;;;;20.29;39.25;100559.36;104865;1271;61467;-65
2022/05/06 11:48:24;;;;;;;7.50;2.80;;;;;;;20.21;40.05;100560.76;104762;1271;70210;-64
2022/05/06 11:51:42;;;;;;;6.70;2.30;;;;;;;20.32;39.64;100559.48;104804;1274;74526;-64
2022/05/06 11:54:31;;;;;;;8.10;2.20;;;;;;;20.49;38.82;100557.46;104978;1271;59761;-65
2022/05/06 11:57:18;;;;;;;7.00;2.40;;;;;;;20.37;38.00;100553.17;104780;1271;59665;-63
2022/05/06 12:00:08;;;;;;;6.30;2.10;;;;;;;20.32;38.42;100550.88;104877;1271;74588;-65
2022/05/06 12:03:08;;;;;;;6.20;2.10;;;;;;;20.30;38.76;100551.80;104872;1271;68668;-66
2022/05/06 12:06:08;;;;;;;6.30;2.10;;;;;;;20.20;38.79;100556.19;104743;1271;74209;-64
2022/05/06 12:09:22;;;;;;;7.40;2.20;;;;;;;19.97;39.18;100557.59;104934;1271;59751;-63
2022/05/06 12:12:11;;;;;;;6.20;2.00;;;;;;;19.78;39.96;100560.04;105156;1271;60483;-64
2022/05/06 12:15:10;;;;;;;6.40;2.10;;;;;;;19.60;40.99;100560.53;104818;1271;74803;-64
2022/05/06 12:18:18;;;;;;;6.30;2.30;;;;;;;19.31;41.76;100556.26;104652;1274;66924;-65
2022/05/06 12:21:22;;;;;;;8.70;2.60;;;;;;;19.17;42.13;100558.64;104820;1272;73140;-63
2022/05/06 12:24:09;;;;;;;6.20;2.30;;;;;;;19.16;41.97;100557.42;104909;1271;60265;-64
2022/05/06 12:26:57;;;;;;;6.80;2.10;;;;;;;19.15;41.44;100559.21;104777;1271;59997;-64
2022/05/06 12:29:46;;;;;;;7.20;2.30;;;;;;;19.17;41.29;100551.02;104744;1271;74308;-64
2022/05/06 12:32:40;;;;;;;7.80;2.60;;;;;;;19.37;41.44;100549.60;104769;1274;69652;-63
2022/05/06 12:35:28;;;;;;;7.30;2.50;;;;;;;19.42;41.01;100549.64;104771;1271;72600;-63
2022/05/06 12:38:16;;;;;;;6.60;2.50;;;;;;;19.30;40.93;100549.74;104886;1271;59658;-62
2022/05/06 12:41:34;;;;;;;8.90;2.50;;;;;;;19.16;41.41;100548.96;104769;1271;61837;-62
2022/05/06 12:44:27;;;;;;;7.00;2.60;;;;;;;19.17;42.49;100549.06;105339;1271;73675;-61
2022/05/06 12:50:27;;;;;;;7.20;2.40;;;;;;;19.52;41.46;100538.69;105000;1271;73042;-62
2022/05/06 12:53:15;;;;;;;6.80;2.50;;;;;;;19.57;40.76;100537.13;105019;1271;59675;-65
2022/05/06 12:56:04;;;;;;;8.70;2.10;;;;;;;19.31;40.47;100535.34;104910;1271;60575;-63
2022/05/06 12:58:52;;;;;;;7.60;2.40;;;;;;;19.16;39.80;100532.10;105053;1271;74540;-63
2022/05/06 13:01:43;;;;;;;7.10;2.20;;;;;;;19.09;40.16;100531.98;104984;1271;67023;-63
2022/05/06 13:04:31;;;;;;;6.90;2.40;;;;;;;19.06;40.62;100533.19;104751;1271;73379;-66
2022/05/06 13:07:19;;;;;;;7.00;2.50;;;;;;;18.98;40.87;100533.83;105157;1271;59695;-63
2022/05/06 13:10:08;;;;;;;7.00;2.40;;;;;;;19.10;41.46;100538.66;104848;1271;59624;-64
2022/05/06 13:12:56;;;;;;;7.70;2.70;;;;;;;19.26;40.03;100530.34;104940;1271;73904;-64
2022/05/06 13:15:44;;;;;;;8.00;2.70;;;;;;;19.16;39.07;100524.89;104838;1274;67169;-65
2022/05/06 13:18:34;;;;;;;6.80;2.20;;;;;;;19.20;38.48;100521.02;104843;1271;73354;-63
2022/05/06 13:21:27;;;;;;;6.60;2.10;;;;;;;19.24;38.32;100518.17;104891;1271;59539;-64
2022/05/06 13:24:18;;;;;;;6.00;2.30;;;;;;;19.11;37.93;100514.73;105029;1271;61531;-63
2022/05/06 13:27:07;;;;;;;6.90;2.40;;;;;;;19.10;38.52;100514.65;104772;1271;74545;-63
2022/05/06 13:29:55;;;;;;;7.00;2.30;;;;;;;18.95;38.64;100518.11;105098;1271;68363;-65
2022/05/06 13:32:44;;;;;;;6.20;2.30;;;;;;;18.83;39.19;100514.66;104962;1271;74652;-63
2022/05/06 13:35:34;;;;;;;9.40;2.40;;;;;;;18.64;38.83;100512.39;104680;1274;59918;-65
2022/05/06 13:38:22;;;;;;;6.60;2.40;;;;;;;18.65;39.32;100513.34;104733;1271;62089;-62
2022/05/06 13:41:10;;;;;;;8.20;2.00;;;;;;;18.67;39.09;100510.83;104754;1270;72324;-64
2022/05/06 13:43:58;;;;;;;6.40;2.50;;;;;;;18.47;39.24;100511.48;104901;1271;68514;-64
2022/05/06 13:46:46;;;;;;;7.00;2.60;;;;;;;18.31;39.78;100512.88;104984;1271;73355;-64
2022/05/06 13:49:33;;;;;;;7.40;2.80;;;;;;;18.29;40.02;100511.52;104792;1271;59772;-64
2022/05/06 13:52:22;;;;;;;6.50;2.50;;;;;;;18.25;40.68;100508.02;105095;1271;60578;-66
2022/05/06 13:55:10;;;;;;;6.80;2.60;;;;;;;18.27;40.91;100501.81;104752;1271;73932;-63